Terminal Aerodrome Forecast
Issued by NWS Portland, ME

Home | Current Version | Previous Version | Text Only | Print | Product List | Glossary On
Versions: 1 2 3 4 5 6 7 8 9 10 11 12 13 14 15 16 17 18 19
000
FTUS41 KGYX 022320
TAFCON
TAF
KCON 022320Z 0300/0324 35005KT P6SM OVC010
     FM030200 00000KT 2SM BR OVC007
      TEMPO 0302/0306 3/4SM BR BKN004
     FM031200 VRB03KT P6SM OVC015
     FM031800 15002KT P6SM OVC050=

USA.gov is the U.S. government's official web portal to all federal, state and local government web resources and services.